sensor_id;sensor_type;location;lat;lon;timestamp;temperature;humidity
67354;SHT30;54238;52.278;21.056;2024-03-17T00:01:47;8.41;62.47
67354;SHT30;54238;52.278;21.056;2024-03-17T00:04:33;8.38;62.55
67354;SHT30;54238;52.278;21.056;2024-03-17T00:07:20;8.35;62.31
67354;SHT30;54238;52.278;21.056;2024-03-17T00:10:09;8.34;62.48
67354;SHT30;54238;52.278;21.056;2024-03-17T00:13:03;8.30;62.72
67354;SHT30;54238;52.278;21.056;2024-03-17T00:15:50;8.26;62.09
67354;SHT30;54238;52.278;21.056;2024-03-17T00:18:39;8.22;61.84
67354;SHT30;54238;52.278;21.056;2024-03-17T00:21:27;8.20;62.09
67354;SHT30;54238;52.278;21.056;2024-03-17T00:24:18;8.18;61.60
67354;SHT30;54238;52.278;21.056;2024-03-17T00:27:11;8.16;62.12
67354;SHT30;54238;52.278;21.056;2024-03-17T00:30:00;8.18;61.49
67354;SHT30;54238;52.278;21.056;2024-03-17T00:32:49;8.18;61.64
67354;SHT30;54238;52.278;21.056;2024-03-17T00:35:36;8.19;61.08
67354;SHT30;54238;52.278;21.056;2024-03-17T00:38:25;8.20;60.75
67354;SHT30;54238;52.278;21.056;2024-03-17T00:41:11;8.17;59.71
67354;SHT30;54238;52.278;21.056;2024-03-17T00:44:03;8.18;59.48
67354;SHT30;54238;52.278;21.056;2024-03-17T00:46:52;8.18;58.88
67354;SHT30;54238;52.278;21.056;2024-03-17T00:49:41;8.15;58.82
67354;SHT30;54238;52.278;21.056;2024-03-17T00:52:30;8.14;58.73
67354;SHT30;54238;52.278;21.056;2024-03-17T00:55:17;8.10;58.12
67354;SHT30;54238;52.278;21.056;2024-03-17T00:58:06;8.04;57.64
67354;SHT30;54238;52.278;21.056;2024-03-17T01:00:53;7.98;57.24
67354;SHT30;54238;52.278;21.056;2024-03-17T01:03:40;7.95;57.35
67354;SHT30;54238;52.278;21.056;2024-03-17T01:06:29;7.91;57.95
67354;SHT30;54238;52.278;21.056;2024-03-17T01:09:18;7.89;57.54
67354;SHT30;54238;52.278;21.056;2024-03-17T01:12:07;7.83;57.26
67354;SHT30;54238;52.278;21.056;2024-03-17T01:14:55;7.79;56.63
67354;SHT30;54238;52.278;21.056;2024-03-17T01:17:41;7.74;57.13
67354;SHT30;54238;52.278;21.056;2024-03-17T01:20:31;7.71;57.40
67354;SHT30;54238;52.278;21.056;2024-03-17T01:23:19;7.65;57.43
67354;SHT30;54238;52.278;21.056;2024-03-17T01:26:11;7.61;57.80
67354;SHT30;54238;52.278;21.056;2024-03-17T01:29:00;7.55;58.09
67354;SHT30;54238;52.278;21.056;2024-03-17T01:31:49;7.47;57.66
67354;SHT30;54238;52.278;21.056;2024-03-17T01:34:37;7.40;58.00
67354;SHT30;54238;52.278;21.056;2024-03-17T01:37:27;7.35;58.33
67354;SHT30;54238;52.278;21.056;2024-03-17T01:40:18;7.30;58.04
67354;SHT30;54238;52.278;21.056;2024-03-17T01:43:05;7.26;58.12
67354;SHT30;54238;52.278;21.056;2024-03-17T01:46:01;7.20;58.54
67354;SHT30;54238;52.278;21.056;2024-03-17T01:48:49;7.13;58.61
67354;SHT30;54238;52.278;21.056;2024-03-17T01:51:36;7.08;59.33
67354;SHT30;54238;52.278;21.056;2024-03-17T01:54:23;7.03;59.39
67354;SHT30;54238;52.278;21.056;2024-03-17T01:57:10;6.98;59.55
67354;SHT30;54238;52.278;21.056;2024-03-17T02:00:01;6.93;59.66
67354;SHT30;54238;52.278;21.056;2024-03-17T02:02:48;6.89;59.84
67354;SHT30;54238;52.278;21.056;2024-03-17T02:05:38;6.86;59.91
67354;SHT30;54238;52.278;21.056;2024-03-17T02:08:27;6.83;60.14
67354;SHT30;54238;52.278;21.056;2024-03-17T02:11:33;6.80;60.28
67354;SHT30;54238;52.278;21.056;2024-03-17T02:14:20;6.80;60.39
67354;SHT30;54238;52.278;21.056;2024-03-17T02:17:09;6.80;60.58
67354;SHT30;54238;52.278;21.056;2024-03-17T02:19:57;6.79;60.34
67354;SHT30;54238;52.278;21.056;2024-03-17T02:22:44;6.77;60.35
67354;SHT30;54238;52.278;21.056;2024-03-17T02:25:33;6.74;60.40
67354;SHT30;54238;52.278;21.056;2024-03-17T02:28:22;6.72;60.26
67354;SHT30;54238;52.278;21.056;2024-03-17T02:31:09;6.69;60.40
67354;SHT30;54238;52.278;21.056;2024-03-17T02:33:58;6.69;59.87
67354;SHT30;54238;52.278;21.056;2024-03-17T02:36:50;6.68;59.60
67354;SHT30;54238;52.278;21.056;2024-03-17T02:39:36;6.66;59.49
67354;SHT30;54238;52.278;21.056;2024-03-17T02:42:24;6.66;59.52
67354;SHT30;54238;52.278;21.056;2024-03-17T02:45:11;6.65;59.46
67354;SHT30;54238;52.278;21.056;2024-03-17T02:47:58;6.62;59.40
67354;SHT30;54238;52.278;21.056;2024-03-17T02:50:46;6.58;59.47
67354;SHT30;54238;52.278;21.056;2024-03-17T02:53:37;6.52;59.18
67354;SHT30;54238;52.278;21.056;2024-03-17T02:56:32;6.45;59.29
67354;SHT30;54238;52.278;21.056;2024-03-17T02:59:18;6.38;59.24
67354;SHT30;54238;52.278;21.056;2024-03-17T03:02:07;6.34;59.50
67354;SHT30;54238;52.278;21.056;2024-03-17T03:04:54;6.33;59.93
67354;SHT30;54238;52.278;21.056;2024-03-17T03:07:41;6.35;60.10
67354;SHT30;54238;52.278;21.056;2024-03-17T03:10:28;6.35;59.87
67354;SHT30;54238;52.278;21.056;2024-03-17T03:13:17;6.36;59.74
67354;SHT30;54238;52.278;21.056;2024-03-17T03:16:04;6.34;59.46
67354;SHT30;54238;52.278;21.056;2024-03-17T03:19:00;6.30;59.18
67354;SHT30;54238;52.278;21.056;2024-03-17T03:21:49;6.26;59.22
67354;SHT30;54238;52.278;21.056;2024-03-17T03:24:38;6.24;59.28
67354;SHT30;54238;52.278;21.056;2024-03-17T03:27:25;6.24;59.18
67354;SHT30;54238;52.278;21.056;2024-03-17T03:30:14;6.25;59.36
67354;SHT30;54238;52.278;21.056;2024-03-17T03:33:02;6.25;59.38
67354;SHT30;54238;52.278;21.056;2024-03-17T03:35:51;6.28;59.57
67354;SHT30;54238;52.278;21.056;2024-03-17T03:38:41;6.29;59.52
67354;SHT30;54238;52.278;21.056;2024-03-17T03:41:33;6.28;59.54
67354;SHT30;54238;52.278;21.056;2024-03-17T03:44:19;6.24;59.74
67354;SHT30;54238;52.278;21.056;2024-03-17T03:47:06;6.22;60.01
67354;SHT30;54238;52.278;21.056;2024-03-17T03:49:55;6.15;60.25
67354;SHT30;54238;52.278;21.056;2024-03-17T03:52:42;6.09;60.60
67354;SHT30;54238;52.278;21.056;2024-03-17T03:55:28;6.03;61.08
67354;SHT30;54238;52.278;21.056;2024-03-17T03:58:20;5.99;61.80
67354;SHT30;54238;52.278;21.056;2024-03-17T04:01:09;5.95;62.44
67354;SHT30;54238;52.278;21.056;2024-03-17T04:04:07;5.92;62.91
67354;SHT30;54238;52.278;21.056;2024-03-17T04:06:54;5.91;63.32
67354;SHT30;54238;52.278;21.056;2024-03-17T04:09:43;5.92;63.59
67354;SHT30;54238;52.278;21.056;2024-03-17T04:12:32;5.91;63.75
67354;SHT30;54238;52.278;21.056;2024-03-17T04:15:19;5.91;63.95
67354;SHT30;54238;52.278;21.056;2024-03-17T04:18:12;5.91;64.03
67354;SHT30;54238;52.278;21.056;2024-03-17T04:21:05;5.88;64.17
67354;SHT30;54238;52.278;21.056;2024-03-17T04:23:57;5.88;64.15
67354;SHT30;54238;52.278;21.056;2024-03-17T04:26:46;5.86;64.21
67354;SHT30;54238;52.278;21.056;2024-03-17T04:29:37;5.88;64.20
67354;SHT30;54238;52.278;21.056;2024-03-17T04:32:25;5.89;64.14
67354;SHT30;54238;52.278;21.056;2024-03-17T04:35:17;5.91;64.04
67354;SHT30;54238;52.278;21.056;2024-03-17T04:38:04;5.93;63.75
67354;SHT30;54238;52.278;21.056;2024-03-17T04:40:55;5.92;63.43
67354;SHT30;54238;52.278;21.056;2024-03-17T04:43:53;5.92;63.29
67354;SHT30;54238;52.278;21.056;2024-03-17T04:46:39;5.91;62.99
67354;SHT30;54238;52.278;21.056;2024-03-17T04:49:26;5.93;62.88
67354;SHT30;54238;52.278;21.056;2024-03-17T04:52:13;5.95;62.33
67354;SHT30;54238;52.278;21.056;2024-03-17T04:55:01;5.93;61.80
67354;SHT30;54238;52.278;21.056;2024-03-17T04:57:50;5.92;61.97
67354;SHT30;54238;52.278;21.056;2024-03-17T05:00:40;5.90;61.87
67354;SHT30;54238;52.278;21.056;2024-03-17T05:03:26;5.88;61.94
67354;SHT30;54238;52.278;21.056;2024-03-17T05:06:13;5.86;61.89
67354;SHT30;54238;52.278;21.056;2024-03-17T05:09:02;5.86;61.79
67354;SHT30;54238;52.278;21.056;2024-03-17T05:11:51;5.85;61.77
67354;SHT30;54238;52.278;21.056;2024-03-17T05:14:40;5.85;61.80
67354;SHT30;54238;52.278;21.056;2024-03-17T05:17:32;5.86;61.84
67354;SHT30;54238;52.278;21.056;2024-03-17T05:20:19;5.86;62.01
67354;SHT30;54238;52.278;21.056;2024-03-17T05:23:11;5.86;62.17
67354;SHT30;54238;52.278;21.056;2024-03-17T05:25:57;5.87;62.36
67354;SHT30;54238;52.278;21.056;2024-03-17T05:28:45;5.88;62.57
67354;SHT30;54238;52.278;21.056;2024-03-17T05:31:35;5.89;62.81
67354;SHT30;54238;52.278;21.056;2024-03-17T05:34:25;5.91;63.13
67354;SHT30;54238;52.278;21.056;2024-03-17T05:37:12;5.95;63.52
67354;SHT30;54238;52.278;21.056;2024-03-17T05:40:01;5.95;64.00
67354;SHT30;54238;52.278;21.056;2024-03-17T05:42:48;5.94;64.63
67354;SHT30;54238;52.278;21.056;2024-03-17T05:45:38;5.93;65.12
67354;SHT30;54238;52.278;21.056;2024-03-17T05:48:24;5.93;65.51
67354;SHT30;54238;52.278;21.056;2024-03-17T05:51:16;5.93;65.72
67354;SHT30;54238;52.278;21.056;2024-03-17T05:54:05;5.93;65.93
67354;SHT30;54238;52.278;21.056;2024-03-17T05:56:54;5.93;66.12
67354;SHT30;54238;52.278;21.056;2024-03-17T05:59:42;5.92;66.15
67354;SHT30;54238;52.278;21.056;2024-03-17T06:02:30;5.92;66.14
67354;SHT30;54238;52.278;21.056;2024-03-17T06:05:21;5.92;65.56
67354;SHT30;54238;52.278;21.056;2024-03-17T06:08:10;5.92;65.47
67354;SHT30;54238;52.278;21.056;2024-03-17T06:10:57;5.95;65.41
67354;SHT30;54238;52.278;21.056;2024-03-17T06:13:46;6.01;65.30
67354;SHT30;54238;52.278;21.056;2024-03-17T06:16:35;6.07;65.27
67354;SHT30;54238;52.278;21.056;2024-03-17T06:19:24;6.10;64.51
67354;SHT30;54238;52.278;21.056;2024-03-17T06:22:13;6.14;64.53
67354;SHT30;54238;52.278;21.056;2024-03-17T06:25:04;6.20;64.44
67354;SHT30;54238;52.278;21.056;2024-03-17T06:27:55;6.25;64.00
67354;SHT30;54238;52.278;21.056;2024-03-17T06:30:44;6.28;63.25
67354;SHT30;54238;52.278;21.056;2024-03-17T06:33:38;6.30;63.08
67354;SHT30;54238;52.278;21.056;2024-03-17T06:36:24;6.32;62.61
67354;SHT30;54238;52.278;21.056;2024-03-17T06:39:13;6.40;62.63
67354;SHT30;54238;52.278;21.056;2024-03-17T06:42:02;6.48;61.77
67354;SHT30;54238;52.278;21.056;2024-03-17T06:44:51;6.51;61.09
67354;SHT30;54238;52.278;21.056;2024-03-17T06:47:38;6.55;60.79
67354;SHT30;54238;52.278;21.056;2024-03-17T06:50:27;6.57;60.59
67354;SHT30;54238;52.278;21.056;2024-03-17T06:53:16;6.58;60.66
67354;SHT30;54238;52.278;21.056;2024-03-17T06:56:02;6.58;60.41
67354;SHT30;54238;52.278;21.056;2024-03-17T06:58:52;6.56;60.44
67354;SHT30;54238;52.278;21.056;2024-03-17T07:01:41;6.58;60.47
67354;SHT30;54238;52.278;21.056;2024-03-17T07:04:30;6.58;60.38
67354;SHT30;54238;52.278;21.056;2024-03-17T07:07:29;6.58;60.59
67354;SHT30;54238;52.278;21.056;2024-03-17T07:10:21;6.62;60.55
67354;SHT30;54238;52.278;21.056;2024-03-17T07:13:09;6.67;60.40
67354;SHT30;54238;52.278;21.056;2024-03-17T07:15:56;6.72;60.18
67354;SHT30;54238;52.278;21.056;2024-03-17T07:18:45;6.78;59.69
67354;SHT30;54238;52.278;21.056;2024-03-17T07:21:32;6.78;59.42
67354;SHT30;54238;52.278;21.056;2024-03-17T07:24:21;6.82;59.64
67354;SHT30;54238;52.278;21.056;2024-03-17T07:27:10;6.85;59.43
67354;SHT30;54238;52.278;21.056;2024-03-17T07:30:00;6.89;59.68
67354;SHT30;54238;52.278;21.056;2024-03-17T07:32:52;6.93;59.26
67354;SHT30;54238;52.278;21.056;2024-03-17T07:35:46;7.01;59.54
67354;SHT30;54238;52.278;21.056;2024-03-17T07:38:36;7.08;59.32
67354;SHT30;54238;52.278;21.056;2024-03-17T07:41:23;7.14;58.91
67354;SHT30;54238;52.278;21.056;2024-03-17T07:44:13;7.20;58.76
67354;SHT30;54238;52.278;21.056;2024-03-17T07:47:05;7.18;58.41
67354;SHT30;54238;52.278;21.056;2024-03-17T07:49:53;7.23;58.76
67354;SHT30;54238;52.278;21.056;2024-03-17T07:52:39;7.27;58.31
67354;SHT30;54238;52.278;21.056;2024-03-17T07:55:26;7.28;58.45
67354;SHT30;54238;52.278;21.056;2024-03-17T07:58:17;7.34;58.58
67354;SHT30;54238;52.278;21.056;2024-03-17T08:04:02;7.52;58.16
67354;SHT30;54238;52.278;21.056;2024-03-17T08:06:54;7.57;58.00
67354;SHT30;54238;52.278;21.056;2024-03-17T08:09:42;7.57;57.73
67354;SHT30;54238;52.278;21.056;2024-03-17T08:12:29;7.56;57.63
67354;SHT30;54238;52.278;21.056;2024-03-17T08:15:18;7.57;57.60
67354;SHT30;54238;52.278;21.056;2024-03-17T08:18:05;7.60;57.76
67354;SHT30;54238;52.278;21.056;2024-03-17T08:20:54;7.72;57.79
67354;SHT30;54238;52.278;21.056;2024-03-17T08:23:46;7.76;57.07
67354;SHT30;54238;52.278;21.056;2024-03-17T08:26:33;7.76;57.18
67354;SHT30;54238;52.278;21.056;2024-03-17T08:29:26;7.83;57.25
67354;SHT30;54238;52.278;21.056;2024-03-17T08:32:13;7.86;57.23
67354;SHT30;54238;52.278;21.056;2024-03-17T08:35:01;7.91;57.23
67354;SHT30;54238;52.278;21.056;2024-03-17T08:37:47;7.95;56.45
67354;SHT30;54238;52.278;21.056;2024-03-17T08:40:36;7.92;56.17
67354;SHT30;54238;52.278;21.056;2024-03-17T08:43:27;7.89;56.44
67354;SHT30;54238;52.278;21.056;2024-03-17T08:46:15;7.87;56.17
67354;SHT30;54238;52.278;21.056;2024-03-17T08:49:01;7.86;56.44
67354;SHT30;54238;52.278;21.056;2024-03-17T08:51:49;7.89;56.65
67354;SHT30;54238;52.278;21.056;2024-03-17T08:54:36;7.94;56.37
67354;SHT30;54238;52.278;21.056;2024-03-17T08:57:27;7.97;56.13
67354;SHT30;54238;52.278;21.056;2024-03-17T09:00:14;8.00;56.05
67354;SHT30;54238;52.278;21.056;2024-03-17T09:03:01;7.98;55.99
67354;SHT30;54238;52.278;21.056;2024-03-17T09:05:50;7.91;56.12
67354;SHT30;54238;52.278;21.056;2024-03-17T09:08:41;7.82;56.50
67354;SHT30;54238;52.278;21.056;2024-03-17T09:11:30;7.69;56.63
67354;SHT30;54238;52.278;21.056;2024-03-17T09:14:21;7.59;57.07
67354;SHT30;54238;52.278;21.056;2024-03-17T09:17:08;7.52;57.81
67354;SHT30;54238;52.278;21.056;2024-03-17T09:19:57;7.44;58.62
67354;SHT30;54238;52.278;21.056;2024-03-17T09:22:48;7.33;59.62
67354;SHT30;54238;52.278;21.056;2024-03-17T09:25:35;7.19;59.58
67354;SHT30;54238;52.278;21.056;2024-03-17T09:28:21;7.11;60.05
67354;SHT30;54238;52.278;21.056;2024-03-17T09:31:16;7.01;60.59
67354;SHT30;54238;52.278;21.056;2024-03-17T09:34:03;6.93;60.60
67354;SHT30;54238;52.278;21.056;2024-03-17T09:36:52;6.91;59.98
67354;SHT30;54238;52.278;21.056;2024-03-17T09:39:38;6.93;59.11
67354;SHT30;54238;52.278;21.056;2024-03-17T09:42:26;6.98;59.11
67354;SHT30;54238;52.278;21.056;2024-03-17T09:45:18;7.05;58.84
67354;SHT30;54238;52.278;21.056;2024-03-17T09:48:07;7.21;59.07
67354;SHT30;54238;52.278;21.056;2024-03-17T09:51:03;7.35;58.70
67354;SHT30;54238;52.278;21.056;2024-03-17T09:53:55;7.49;58.68
67354;SHT30;54238;52.278;21.056;2024-03-17T09:56:44;7.53;58.20
67354;SHT30;54238;52.278;21.056;2024-03-17T09:59:31;7.59;58.52
67354;SHT30;54238;52.278;21.056;2024-03-17T10:02:18;7.72;58.54
67354;SHT30;54238;52.278;21.056;2024-03-17T10:05:05;7.86;58.30
67354;SHT30;54238;52.278;21.056;2024-03-17T10:08:09;7.97;57.77
67354;SHT30;54238;52.278;21.056;2024-03-17T10:11:10;8.03;57.84
67354;SHT30;54238;52.278;21.056;2024-03-17T10:14:05;7.99;57.15
67354;SHT30;54238;52.278;21.056;2024-03-17T10:16:59;7.92;56.94
67354;SHT30;54238;52.278;21.056;2024-03-17T10:19:50;7.84;56.86
67354;SHT30;54238;52.278;21.056;2024-03-17T10:22:39;7.79;57.25
67354;SHT30;54238;52.278;21.056;2024-03-17T10:25:26;7.70;57.23
67354;SHT30;54238;52.278;21.056;2024-03-17T10:28:16;7.57;57.44
67354;SHT30;54238;52.278;21.056;2024-03-17T10:31:05;7.50;58.06
67354;SHT30;54238;52.278;21.056;2024-03-17T10:34:04;7.43;57.89
67354;SHT30;54238;52.278;21.056;2024-03-17T10:36:51;7.45;58.11
67354;SHT30;54238;52.278;21.056;2024-03-17T10:39:51;7.51;58.45
67354;SHT30;54238;52.278;21.056;2024-03-17T10:42:44;7.55;58.43
67354;SHT30;54238;52.278;21.056;2024-03-17T10:45:31;7.62;58.75
67354;SHT30;54238;52.278;21.056;2024-03-17T10:48:26;7.60;59.52
67354;SHT30;54238;52.278;21.056;2024-03-17T10:51:20;7.52;59.71
67354;SHT30;54238;52.278;21.056;2024-03-17T10:54:10;7.47;60.04
67354;SHT30;54238;52.278;21.056;2024-03-17T11:00:22;7.33;60.27
67354;SHT30;54238;52.278;21.056;2024-03-17T11:03:11;7.30;60.07
67354;SHT30;54238;52.278;21.056;2024-03-17T11:06:03;7.25;60.00
67354;SHT30;54238;52.278;21.056;2024-03-17T11:08:54;7.22;60.35
67354;SHT30;54238;52.278;21.056;2024-03-17T11:11:41;7.18;60.83
67354;SHT30;54238;52.278;21.056;2024-03-17T11:14:30;7.15;61.34
67354;SHT30;54238;52.278;21.056;2024-03-17T11:17:19;7.14;61.84
67354;SHT30;54238;52.278;21.056;2024-03-17T11:20:15;7.15;62.50
67354;SHT30;54238;52.278;21.056;2024-03-17T11:23:12;7.09;62.19
67354;SHT30;54238;52.278;21.056;2024-03-17T11:26:13;7.03;61.47
67354;SHT30;54238;52.278;21.056;2024-03-17T11:29:28;7.09;61.76
67354;SHT30;54238;52.278;21.056;2024-03-17T11:32:25;7.20;61.43
67354;SHT30;54238;52.278;21.056;2024-03-17T11:35:14;7.25;60.52
67354;SHT30;54238;52.278;21.056;2024-03-17T11:38:03;7.28;60.59
67354;SHT30;54238;52.278;21.056;2024-03-17T11:41:30;7.30;60.50
67354;SHT30;54238;52.278;21.056;2024-03-17T11:44:25;7.27;58.68
67354;SHT30;54238;52.278;21.056;2024-03-17T11:47:12;7.21;58.04
67354;SHT30;54238;52.278;21.056;2024-03-17T11:50:02;7.18;59.16
67354;SHT30;54238;52.278;21.056;2024-03-17T11:53:12;6.99;61.06
67354;SHT30;54238;52.278;21.056;2024-03-17T11:56:02;6.83;62.56
67354;SHT30;54238;52.278;21.056;2024-03-17T11:59:04;6.76;63.55
67354;SHT30;54238;52.278;21.056;2024-03-17T12:01:55;6.71;63.88
67354;SHT30;54238;52.278;21.056;2024-03-17T12:04:42;6.76;63.47
67354;SHT30;54238;52.278;21.056;2024-03-17T12:07:29;6.88;63.41
67354;SHT30;54238;52.278;21.056;2024-03-17T12:10:28;7.04;62.64
67354;SHT30;54238;52.278;21.056;2024-03-17T12:13:17;7.13;61.33
67354;SHT30;54238;52.278;21.056;2024-03-17T12:16:12;7.18;60.41
67354;SHT30;54238;52.278;21.056;2024-03-17T12:19:06;7.27;59.80
67354;SHT30;54238;52.278;21.056;2024-03-17T12:22:00;7.33;58.75
67354;SHT30;54238;52.278;21.056;2024-03-17T12:24:49;7.37;58.69
67354;SHT30;54238;52.278;21.056;2024-03-17T12:27:41;7.50;58.64
67354;SHT30;54238;52.278;21.056;2024-03-17T12:30:35;7.71;58.53
67354;SHT30;54238;52.278;21.056;2024-03-17T12:33:23;7.87;56.63
67354;SHT30;54238;52.278;21.056;2024-03-17T12:36:10;8.00;56.37
67354;SHT30;54238;52.278;21.056;2024-03-17T12:39:09;8.04;56.25
67354;SHT30;54238;52.278;21.056;2024-03-17T12:42:25;8.05;56.48
67354;SHT30;54238;52.278;21.056;2024-03-17T12:45:14;8.00;57.25
67354;SHT30;54238;52.278;21.056;2024-03-17T12:48:10;7.97;57.89
67354;SHT30;54238;52.278;21.056;2024-03-17T12:51:13;7.88;58.26
67354;SHT30;54238;52.278;21.056;2024-03-17T12:54:14;7.85;58.48
67354;SHT30;54238;52.278;21.056;2024-03-17T12:57:04;7.86;58.09
67354;SHT30;54238;52.278;21.056;2024-03-17T13:00:16;7.83;57.63
67354;SHT30;54238;52.278;21.056;2024-03-17T13:03:26;7.86;57.37
67354;SHT30;54238;52.278;21.056;2024-03-17T13:06:22;8.05;56.97
67354;SHT30;54238;52.278;21.056;2024-03-17T13:09:13;8.27;56.12
67354;SHT30;54238;52.278;21.056;2024-03-17T13:12:00;8.38;55.27
67354;SHT30;54238;52.278;21.056;2024-03-17T13:14:57;8.29;54.51
67354;SHT30;54238;52.278;21.056;2024-03-17T13:17:46;8.19;54.99
67354;SHT30;54238;52.278;21.056;2024-03-17T13:20:36;8.02;54.98
67354;SHT30;54238;52.278;21.056;2024-03-17T13:23:27;7.87;55.97
67354;SHT30;54238;52.278;21.056;2024-03-17T13:26:16;7.70;57.23
67354;SHT30;54238;52.278;21.056;2024-03-17T13:29:02;7.55;59.01
67354;SHT30;54238;52.278;21.056;2024-03-17T13:31:51;7.38;60.56
67354;SHT30;54238;52.278;21.056;2024-03-17T13:34:38;7.19;61.71
67354;SHT30;54238;52.278;21.056;2024-03-17T13:37:27;6.99;63.10
67354;SHT30;54238;52.278;21.056;2024-03-17T13:40:19;6.82;63.99
67354;SHT30;54238;52.278;21.056;2024-03-17T13:43:07;6.69;64.64
67354;SHT30;54238;52.278;21.056;2024-03-17T13:45:55;6.58;65.01
67354;SHT30;54238;52.278;21.056;2024-03-17T13:48:41;6.50;65.78
67354;SHT30;54238;52.278;21.056;2024-03-17T13:51:30;6.45;66.08
67354;SHT30;54238;52.278;21.056;2024-03-17T13:54:20;6.43;66.32
67354;SHT30;54238;52.278;21.056;2024-03-17T13:57:09;6.41;66.42
67354;SHT30;54238;52.278;21.056;2024-03-17T14:00:05;6.37;66.36
67354;SHT30;54238;52.278;21.056;2024-03-17T14:02:55;6.31;66.46
67354;SHT30;54238;52.278;21.056;2024-03-17T14:05:42;6.26;66.30
67354;SHT30;54238;52.278;21.056;2024-03-17T14:08:31;6.18;66.30
67354;SHT30;54238;52.278;21.056;2024-03-17T14:11:23;6.13;66.34
67354;SHT30;54238;52.278;21.056;2024-03-17T14:14:12;6.07;66.68
67354;SHT30;54238;52.278;21.056;2024-03-17T14:17:03;6.07;67.04
67354;SHT30;54238;52.278;21.056;2024-03-17T14:19:50;6.06;67.19
67354;SHT30;54238;52.278;21.056;2024-03-17T14:22:40;6.08;67.41
67354;SHT30;54238;52.278;21.056;2024-03-17T14:25:28;6.12;67.61
67354;SHT30;54238;52.278;21.056;2024-03-17T14:28:17;6.10;67.88
67354;SHT30;54238;52.278;21.056;2024-03-17T14:31:05;6.08;67.98
67354;SHT30;54238;52.278;21.056;2024-03-17T14:33:57;6.06;67.72
67354;SHT30;54238;52.278;21.056;2024-03-17T14:36:44;6.02;67.75
67354;SHT30;54238;52.278;21.056;2024-03-17T14:39:31;6.01;67.52
67354;SHT30;54238;52.278;21.056;2024-03-17T14:42:18;6.01;67.12
67354;SHT30;54238;52.278;21.056;2024-03-17T14:45:08;6.03;67.35
67354;SHT30;54238;52.278;21.056;2024-03-17T14:47:57;5.99;66.66
67354;SHT30;54238;52.278;21.056;2024-03-17T14:50:44;6.00;66.80
67354;SHT30;54238;52.278;21.056;2024-03-17T14:53:36;6.03;65.97
67354;SHT30;54238;52.278;21.056;2024-03-17T14:56:34;5.97;65.74
67354;SHT30;54238;52.278;21.056;2024-03-17T14:59:26;5.94;65.57
67354;SHT30;54238;52.278;21.056;2024-03-17T15:02:16;5.86;65.91
67354;SHT30;54238;52.278;21.056;2024-03-17T15:05:11;5.78;66.18
67354;SHT30;54238;52.278;21.056;2024-03-17T15:07:58;5.75;66.42
67354;SHT30;54238;52.278;21.056;2024-03-17T15:10:44;5.70;66.65
67354;SHT30;54238;52.278;21.056;2024-03-17T15:13:34;5.64;66.91
67354;SHT30;54238;52.278;21.056;2024-03-17T15:16:23;5.58;67.26
67354;SHT30;54238;52.278;21.056;2024-03-17T15:19:10;5.49;67.68
67354;SHT30;54238;52.278;21.056;2024-03-17T15:21:57;5.45;68.22
67354;SHT30;54238;52.278;21.056;2024-03-17T15:24:46;5.41;68.31
67354;SHT30;54238;52.278;21.056;2024-03-17T15:27:33;5.35;68.81
67354;SHT30;54238;52.278;21.056;2024-03-17T15:30:26;5.30;69.55
67354;SHT30;54238;52.278;21.056;2024-03-17T15:33:18;5.28;70.02
67354;SHT30;54238;52.278;21.056;2024-03-17T15:36:07;5.17;70.34
67354;SHT30;54238;52.278;21.056;2024-03-17T15:38:55;5.00;71.00
67354;SHT30;54238;52.278;21.056;2024-03-17T15:41:47;4.86;71.17
67354;SHT30;54238;52.278;21.056;2024-03-17T15:44:36;4.79;71.61
67354;SHT30;54238;52.278;21.056;2024-03-17T15:47:23;4.72;72.00
67354;SHT30;54238;52.278;21.056;2024-03-17T15:50:12;4.63;72.55
67354;SHT30;54238;52.278;21.056;2024-03-17T15:53:06;4.59;72.87
67354;SHT30;54238;52.278;21.056;2024-03-17T15:55:58;4.54;72.96
67354;SHT30;54238;52.278;21.056;2024-03-17T15:58:48;4.46;73.06
67354;SHT30;54238;52.278;21.056;2024-03-17T16:01:35;4.41;73.08
67354;SHT30;54238;52.278;21.056;2024-03-17T16:04:23;4.38;73.00
67354;SHT30;54238;52.278;21.056;2024-03-17T16:07:12;4.36;72.93
67354;SHT30;54238;52.278;21.056;2024-03-17T16:09:59;4.35;73.11
67354;SHT30;54238;52.278;21.056;2024-03-17T16:12:48;4.34;73.13
67354;SHT30;54238;52.278;21.056;2024-03-17T16:15:39;4.32;73.03
67354;SHT30;54238;52.278;21.056;2024-03-17T16:18:26;4.33;73.20
67354;SHT30;54238;52.278;21.056;2024-03-17T16:21:19;4.33;73.33
67354;SHT30;54238;52.278;21.056;2024-03-17T16:24:14;4.34;73.37
67354;SHT30;54238;52.278;21.056;2024-03-17T16:27:04;4.34;73.02
67354;SHT30;54238;52.278;21.056;2024-03-17T16:29:55;4.34;73.06
67354;SHT30;54238;52.278;21.056;2024-03-17T16:32:47;4.32;72.88
67354;SHT30;54238;52.278;21.056;2024-03-17T16:35:34;4.28;72.84
67354;SHT30;54238;52.278;21.056;2024-03-17T16:38:25;4.23;72.96
67354;SHT30;54238;52.278;21.056;2024-03-17T16:41:17;4.18;72.50
67354;SHT30;54238;52.278;21.056;2024-03-17T16:47:42;4.11;71.74
67354;SHT30;54238;52.278;21.056;2024-03-17T16:50:29;4.10;71.40
67354;SHT30;54238;52.278;21.056;2024-03-17T16:53:22;4.06;71.13
67354;SHT30;54238;52.278;21.056;2024-03-17T16:56:11;4.03;71.00
67354;SHT30;54238;52.278;21.056;2024-03-17T16:58:59;3.97;70.78
67354;SHT30;54238;52.278;21.056;2024-03-17T17:01:46;3.95;70.69
67354;SHT30;54238;52.278;21.056;2024-03-17T17:04:33;3.94;70.64
67354;SHT30;54238;52.278;21.056;2024-03-17T17:07:21;3.95;70.52
67354;SHT30;54238;52.278;21.056;2024-03-17T17:10:10;3.93;70.03
67354;SHT30;54238;52.278;21.056;2024-03-17T17:12:59;3.91;69.59
67354;SHT30;54238;52.278;21.056;2024-03-17T17:15:46;3.92;69.83
67354;SHT30;54238;52.278;21.056;2024-03-17T17:18:48;3.91;69.74
67354;SHT30;54238;52.278;21.056;2024-03-17T17:21:40;3.88;70.03
67354;SHT30;54238;52.278;21.056;2024-03-17T17:24:38;3.86;70.46
67354;SHT30;54238;52.278;21.056;2024-03-17T17:27:28;3.87;70.85
67354;SHT30;54238;52.278;21.056;2024-03-17T17:30:17;3.88;71.08
67354;SHT30;54238;52.278;21.056;2024-03-17T17:33:04;3.88;70.79
67354;SHT30;54238;52.278;21.056;2024-03-17T17:35:53;3.87;70.66
67354;SHT30;54238;52.278;21.056;2024-03-17T17:38:42;3.89;70.82
67354;SHT30;54238;52.278;21.056;2024-03-17T17:41:32;3.90;70.73
67354;SHT30;54238;52.278;21.056;2024-03-17T17:44:23;3.91;70.76
67354;SHT30;54238;52.278;21.056;2024-03-17T17:47:12;3.92;70.74
67354;SHT30;54238;52.278;21.056;2024-03-17T17:50:01;3.95;70.69
67354;SHT30;54238;52.278;21.056;2024-03-17T17:52:48;3.95;70.68
67354;SHT30;54238;52.278;21.056;2024-03-17T17:55:35;3.94;70.38
67354;SHT30;54238;52.278;21.056;2024-03-17T17:58:24;3.90;70.28
67354;SHT30;54238;52.278;21.056;2024-03-17T18:01:12;3.86;70.35
67354;SHT30;54238;52.278;21.056;2024-03-17T18:04:04;3.86;70.42